Time;durP1;ratioP1;P1;durP2;ratioP2;P2;SDS_P1;SDS_P2;PMS_P1;PMS_P2;Temp;Humidity;BMP_temperature;BMP_pressure;BME280_temperature;BME280_humidity;BME280_pressure;Samples;Min_cycle;Max_cycle;Signal;HPM_P1;HPM_P2
2023/07/28 00:02:09;;;;;;;;;0.67;0.00;;;;;26.89;46.17;100640.78;5077981;27;45351;-73
2023/07/28 00:04:35;;;;;;;;;1.33;1.00;;;;;26.95;46.34;100636.44;5077569;27;45372;-73
2023/07/28 00:07:01;;;;;;;;;1.00;1.00;;;;;27.00;45.83;100633.94;5078032;27;45554;-73
2023/07/28 00:09:27;;;;;;;;;2.33;1.00;;;;;27.05;45.46;100638.59;5077769;27;46181;-74
2023/07/28 00:11:52;;;;;;;;;1.00;1.00;;;;;27.10;45.93;100635.28;5077781;27;45480;-73
2023/07/28 00:14:17;;;;;;;;;0.00;0.00;;;;;27.14;45.46;100637.31;5078035;28;45457;-74
2023/07/28 00:16:43;;;;;;;;;1.00;1.00;;;;;27.18;45.27;100638.53;5077923;27;45556;-74
2023/07/28 00:19:08;;;;;;;;;2.00;0.00;;;;;27.22;45.80;100628.19;5077065;27;45374;-74
2023/07/28 00:21:34;;;;;;;;;0.00;0.00;;;;;27.25;45.02;100630.44;5084038;27;45461;-73
2023/07/28 00:23:59;;;;;;;;;0.00;0.00;;;;;27.25;45.22;100618.91;5098350;27;45473;-73
2023/07/28 00:26:24;;;;;;;;;1.00;1.00;;;;;27.31;44.85;100625.25;5098048;27;45441;-73
2023/07/28 00:28:50;;;;;;;;;0.00;0.00;;;;;27.34;45.28;100624.81;5098029;27;46760;-74
2023/07/28 00:31:15;;;;;;;;;0.00;0.00;;;;;27.36;44.71;100620.88;5098019;27;45398;-73
2023/07/28 00:33:42;;;;;;;;;0.00;0.00;;;;;27.36;44.56;100618.19;5097775;27;47059;-73
2023/07/28 00:36:07;;;;;;;;;0.00;0.00;;;;;27.40;44.96;100623.94;5098069;27;45252;-73
2023/07/28 00:38:32;;;;;;;;;0.00;0.00;;;;;27.42;45.20;100608.47;5097869;27;45321;-73
2023/07/28 00:40:57;;;;;;;;;0.00;0.00;;;;;27.42;44.82;100610.34;5097661;27;46702;-73
2023/07/28 00:43:23;;;;;;;;;0.00;0.00;;;;;27.46;44.99;100615.00;5097962;27;45535;-73
2023/07/28 00:45:48;;;;;;;;;2.00;0.00;;;;;27.47;44.93;100616.66;5097983;27;45413;-73
2023/07/28 00:48:15;;;;;;;;;1.00;0.00;;;;;27.50;44.33;100620.72;5097294;27;46097;-73
2023/07/28 00:50:44;;;;;;;;;2.00;0.67;;;;;27.50;44.64;100610.03;5097761;27;45405;-73
2023/07/28 00:53:10;;;;;;;;;0.00;0.00;;;;;27.50;44.19;100597.50;5097473;27;45412;-73
2023/07/28 00:55:35;;;;;;;;;0.00;0.00;;;;;27.51;44.89;100606.31;5097662;27;45360;-73
2023/07/28 00:58:00;;;;;;;;;1.00;1.00;;;;;27.52;44.37;100605.28;5097355;27;47717;-74
2023/07/28 01:00:26;;;;;;;;;2.00;2.00;;;;;27.44;44.49;100598.38;5097555;27;45334;-73
2023/07/28 01:02:51;;;;;;;;;1.00;1.00;;;;;27.48;44.14;100602.22;5097278;27;45291;-73
2023/07/28 01:05:17;;;;;;;;;0.00;0.00;;;;;27.52;44.10;100614.13;5097567;27;45564;-73
2023/07/28 01:08:00;;;;;;;;;1.33;1.00;;;;;27.52;44.08;100613.28;5096223;27;45487;-74
2023/07/28 01:10:32;;;;;;;;;0.00;0.00;;;;;27.44;43.94;100598.38;5097400;27;45381;-74
2023/07/28 01:12:58;;;;;;;;;0.67;0.67;;;;;27.53;44.76;100612.28;5097380;27;45404;-73
2023/07/28 01:15:23;;;;;;;;;0.00;0.00;;;;;27.52;44.73;100605.28;5097461;27;45424;-73
2023/07/28 01:17:49;;;;;;;;;0.00;0.00;;;;;27.46;44.70;100598.97;5096715;27;46234;-73
2023/07/28 01:20:14;;;;;;;;;1.00;1.00;;;;;27.53;44.45;100612.28;5097122;27;45407;-73
2023/07/28 01:22:40;;;;;;;;;0.00;0.00;;;;;27.54;44.09;100610.38;5097199;27;45357;-73
2023/07/28 01:25:26;;;;;;;;;0.67;0.00;;;;;27.51;44.54;100615.16;5097242;27;45499;-73
2023/07/28 01:27:52;;;;;;;;;0.33;0.33;;;;;27.54;44.59;100616.56;5096651;27;45474;-73
2023/07/28 01:30:19;;;;;;;;;0.00;0.00;;;;;27.54;44.37;100608.53;5097115;27;45360;-74
2023/07/28 01:32:44;;;;;;;;;0.67;0.67;;;;;27.57;43.93;100615.28;5096946;27;45306;-73
2023/07/28 01:35:10;;;;;;;;;0.00;0.00;;;;;27.57;43.79;100616.13;5097246;27;45555;-73
2023/07/28 01:37:35;;;;;;;;;0.00;0.00;;;;;27.59;44.21;100611.34;5096833;27;45419;-73
2023/07/28 01:40:02;;;;;;;;;1.00;0.00;;;;;27.56;44.15;100603.78;5096791;27;45318;-74
2023/07/28 01:42:27;;;;;;;;;0.00;0.00;;;;;27.61;43.86;100608.47;5097022;27;45369;-73
2023/07/28 01:44:52;;;;;;;;;0.00;0.00;;;;;27.61;44.39;100603.94;5096887;27;45231;-74
2023/07/28 01:47:17;;;;;;;;;0.00;0.00;;;;;27.59;43.97;100607.88;5096496;27;45828;-73
2023/07/28 01:49:43;;;;;;;;;0.67;0.67;;;;;27.60;44.38;100604.16;5096481;27;52342;-74
2023/07/28 01:52:08;;;;;;;;;0.00;0.00;;;;;27.54;44.51;100591.69;5092018;27;45430;-73
2023/07/28 01:54:33;;;;;;;;;0.00;0.00;;;;;27.62;43.77;100602.91;5076434;27;45370;-74
2023/07/28 01:56:59;;;;;;;;;0.00;0.00;;;;;27.61;44.01;100600.47;5076138;27;46176;-74
2023/07/28 01:59:24;;;;;;;;;1.00;1.00;;;;;27.63;44.31;100599.19;5075806;27;49964;-73
2023/07/28 02:01:49;;;;;;;;;0.00;0.00;;;;;27.61;44.26;100598.59;5076061;27;45323;-73
2023/07/28 02:04:15;;;;;;;;;0.00;0.00;;;;;27.62;43.58;100610.91;5076219;27;45343;-73
2023/07/28 02:06:41;;;;;;;;;0.00;0.00;;;;;27.62;44.32;100610.09;5076024;27;46191;-73
2023/07/28 02:09:06;;;;;;;;;1.00;0.00;;;;;27.62;44.10;100608.25;5074729;28;45352;-73
2023/07/28 02:11:31;;;;;;;;;0.00;0.00;;;;;27.62;44.21;100608.25;5076322;27;45374;-73
2023/07/28 02:13:58;;;;;;;;;0.00;0.00;;;;;27.61;43.75;100603.94;5076300;28;45225;-73
2023/07/28 02:16:23;;;;;;;;;0.00;0.00;;;;;27.60;44.20;100606.84;5075354;27;47167;-74
2023/07/28 02:18:49;;;;;;;;;0.00;0.00;;;;;27.60;43.91;100596.16;5075456;27;45379;-73
2023/07/28 02:21:14;;;;;;;;;0.00;0.00;;;;;27.59;43.90;100591.84;5079671;27;45282;-73
2023/07/28 02:23:41;;;;;;;;;0.00;0.00;;;;;27.61;43.86;100601.25;5096476;27;45743;-73
2023/07/28 02:26:06;;;;;;;;;1.00;1.00;;;;;27.60;44.20;100606.84;5096130;27;46228;-73
2023/07/28 02:28:31;;;;;;;;;0.00;0.00;;;;;27.58;43.70;100606.25;5096208;27;45629;-73
2023/07/28 02:30:57;;;;;;;;;1.00;1.00;;;;;27.60;43.96;100602.31;5094797;27;45473;-73
2023/07/28 02:33:22;;;;;;;;;0.00;0.00;;;;;27.60;43.68;100609.50;5096520;27;45373;-73
2023/07/28 02:35:47;;;;;;;;;0.67;0.00;;;;;27.52;44.03;100599.94;5095953;27;46095;-73
2023/07/28 02:38:13;;;;;;;;;0.00;0.00;;;;;27.60;44.08;100604.16;5096052;27;45479;-73
2023/07/28 02:40:38;;;;;;;;;0.00;0.00;;;;;27.58;43.74;100601.72;5096233;27;45375;-73
2023/07/28 02:43:03;;;;;;;;;0.00;0.00;;;;;27.58;43.78;100593.72;5096067;27;46522;-73
2023/07/28 02:45:28;;;;;;;;;0.00;0.00;;;;;27.59;43.77;100600.66;5095410;27;51576;-72
2023/07/28 02:47:54;;;;;;;;;0.00;0.00;;;;;27.60;43.70;100593.47;5096120;27;45424;-73
2023/07/28 02:50:19;;;;;;;;;0.33;0.33;;;;;27.60;43.96;100605.00;5095995;27;45577;-73
2023/07/28 02:52:44;;;;;;;;;1.00;1.00;;;;;27.56;43.97;100592.31;5096024;27;45335;-72
2023/07/28 02:55:10;;;;;;;;;0.00;0.00;;;;;27.61;43.93;100601.25;5095946;27;46823;-73
2023/07/28 02:57:35;;;;;;;;;0.00;0.00;;;;;27.61;43.92;100597.78;5095805;27;45299;-73
2023/07/28 03:00:00;;;;;;;;;0.67;0.33;;;;;27.62;43.69;100599.41;5095727;27;45418;-73
2023/07/28 03:02:26;;;;;;;;;0.00;0.00;;;;;27.62;44.35;100592.22;5095787;27;47844;-73
2023/07/28 03:04:51;;;;;;;;;0.00;0.00;;;;;27.62;44.28;100597.56;5095729;27;45413;-73
2023/07/28 03:07:17;;;;;;;;;0.00;0.00;;;;;27.62;43.82;100588.72;5095969;27;45346;-74
2023/07/28 03:09:43;;;;;;;;;0.00;0.00;;;;;27.63;43.70;100598.38;5096090;27;45625;-73
2023/07/28 03:12:08;;;;;;;;;0.00;0.00;;;;;27.63;43.66;100591.19;5095880;27;45561;-73
2023/07/28 03:14:33;;;;;;;;;0.00;0.00;;;;;27.63;44.05;100598.38;5095010;27;55425;-73
2023/07/28 03:16:58;;;;;;;;;0.00;0.00;;;;;27.63;43.69;100595.69;5095679;27;45397;-73
2023/07/28 03:19:24;;;;;;;;;0.00;0.00;;;;;27.61;44.17;100595.91;5095641;27;45569;-73
2023/07/28 03:21:49;;;;;;;;;0.00;0.00;;;;;27.61;44.18;100589.78;5095657;27;45487;-73
2023/07/28 03:24:14;;;;;;;;;0.00;0.00;;;;;27.57;44.20;100584.06;5095690;27;47075;-73
2023/07/28 03:26:40;;;;;;;;;0.00;0.00;;;;;27.60;44.29;100588.94;5095486;27;45363;-73
2023/07/28 03:29:05;;;;;;;;;0.00;0.00;;;;;27.59;44.43;100587.31;5095468;27;45564;-73
2023/07/28 03:31:31;;;;;;;;;0.67;0.67;;;;;27.59;43.58;100589.16;5098657;27;45298;-73
2023/07/28 03:33:56;;;;;;;;;0.00;0.00;;;;;27.57;44.10;100592.06;5097554;27;47023;-73
2023/07/28 03:36:21;;;;;;;;;0.00;0.00;;;;;27.54;43.88;100587.16;5098891;27;45517;-73
2023/07/28 03:38:47;;;;;;;;;0.00;0.00;;;;;27.57;43.75;100594.75;5099094;27;45426;-74
2023/07/28 03:41:13;;;;;;;;;0.00;0.00;;;;;27.58;44.27;100598.22;5098626;27;45369;-74
2023/07/28 03:43:38;;;;;;;;;0.00;0.00;;;;;27.59;44.44;100602.53;5098856;27;45345;-73
2023/07/28 03:46:04;;;;;;;;;0.00;0.00;;;;;27.59;43.91;100600.66;5098775;27;45356;-73
2023/07/28 03:48:29;;;;;;;;;2.00;0.00;;;;;27.59;44.02;100605.19;5098873;27;45319;-74
2023/07/28 03:50:54;;;;;;;;;0.00;0.00;;;;;27.59;44.38;100602.53;5098980;27;45245;-74
2023/07/28 03:53:20;;;;;;;;;0.00;0.00;;;;;27.59;43.59;100603.34;5098494;27;46035;-73
2023/07/28 03:55:45;;;;;;;;;0.33;0.33;;;;;27.60;43.72;100602.31;5097859;27;45353;-73
2023/07/28 03:58:10;;;;;;;;;1.00;1.00;;;;;27.59;44.26;100602.53;5098573;27;45322;-73
2023/07/28 04:00:36;;;;;;;;;0.00;0.00;;;;;27.60;44.08;100604.16;5098654;27;45342;-73
2023/07/28 04:03:01;;;;;;;;;0.00;0.00;;;;;27.62;43.85;100596.72;5097282;27;45436;-73
2023/07/28 04:05:26;;;;;;;;;0.00;0.00;;;;;27.62;43.49;100607.44;5098235;27;48266;-73
2023/07/28 04:07:52;;;;;;;;;0.00;0.00;;;;;27.62;43.85;100607.44;5098683;27;45372;-73
2023/07/28 04:10:17;;;;;;;;;0.00;0.00;;;;;27.62;43.71;100608.25;5098281;27;45307;-73
2023/07/28 04:12:42;;;;;;;;;0.00;0.00;;;;;27.60;43.70;100602.31;5098248;27;46906;-73
2023/07/28 04:15:08;;;;;;;;;1.00;0.00;;;;;27.59;43.62;100599.84;5098474;27;45298;-73
2023/07/28 04:17:33;;;;;;;;;1.00;1.00;;;;;27.62;43.64;100600.22;5098299;27;45307;-73
2023/07/28 04:19:59;;;;;;;;;1.00;0.00;;;;;27.60;43.62;100607.66;5098301;27;45260;-73
2023/07/28 04:22:24;;;;;;;;;0.00;0.00;;;;;27.61;44.27;100613.81;5097904;27;48020;-73
2023/07/28 04:24:49;;;;;;;;;0.00;0.00;;;;;27.60;44.25;100615.69;5097951;27;45266;-72
2023/07/28 04:27:15;;;;;;;;;0.00;0.00;;;;;27.59;44.29;100610.53;5098296;27;45388;-73
2023/07/28 04:29:41;;;;;;;;;0.00;0.00;;;;;27.59;44.04;100614.03;5098250;27;45389;-73
2023/07/28 04:32:06;;;;;;;;;0.33;0.00;;;;;27.60;44.35;100609.50;5097997;27;46068;-73
2023/07/28 04:34:34;;;;;;;;;0.00;0.00;;;;;27.59;43.91;100613.22;5098222;27;45386;-73
2023/07/28 04:37:00;;;;;;;;;1.00;1.00;;;;;27.59;43.56;100614.03;5098183;27;45365;-73
2023/07/28 04:39:25;;;;;;;;;0.00;0.00;;;;;27.58;43.76;100604.41;5097518;27;45333;-73
2023/07/28 04:41:50;;;;;;;;;1.67;1.00;;;;;27.58;44.24;100611.59;5097563;27;46053;-73
2023/07/28 04:44:16;;;;;;;;;0.00;0.00;;;;;27.59;44.26;100616.69;5097888;27;45367;-73
2023/07/28 04:46:42;;;;;;;;;0.00;0.00;;;;;27.60;43.82;100625.53;5098090;27;45372;-73
2023/07/28 04:49:07;;;;;;;;;0.67;0.67;;;;;27.51;44.25;100601.78;5098075;27;45275;-73
2023/07/28 04:51:32;;;;;;;;;0.67;0.67;;;;;27.56;44.19;100613.69;5097601;27;45432;-74
2023/07/28 04:53:58;;;;;;;;;0.00;0.00;;;;;27.61;43.58;100622.63;5097456;27;45368;-73
2023/07/28 04:56:23;;;;;;;;;1.00;0.67;;;;;27.60;43.90;100621.03;5097717;27;45280;-74
2023/07/28 04:58:48;;;;;;;;;0.00;0.00;;;;;27.62;43.92;100632.28;5097751;27;45235;-72
2023/07/28 05:01:13;;;;;;;;;0.00;0.00;;;;;27.63;43.85;100635.78;5097612;27;45359;-73
2023/07/28 05:03:39;;;;;;;;;0.00;0.00;;;;;27.62;44.17;100629.63;5097548;27;45255;-73
2023/07/28 05:06:07;;;;;;;;;0.00;0.00;;;;;27.65;44.37;100632.88;5097312;27;46633;-73
2023/07/28 05:08:32;;;;;;;;;0.00;0.00;;;;;27.63;44.14;100639.28;5097363;27;45441;-73
2023/07/28 05:10:57;;;;;;;;;0.00;0.00;;;;;27.61;43.70;100636.00;5097271;27;46217;-73
2023/07/28 05:13:23;;;;;;;;;0.00;0.00;;;;;27.64;43.47;100634.72;5097519;27;45357;-73
2023/07/28 05:15:48;;;;;;;;;0.00;0.00;;;;;27.63;44.16;100636.63;5098126;27;45338;-73
2023/07/28 05:18:13;;;;;;;;;0.00;0.00;;;;;27.64;44.16;100650.75;5096943;27;45393;-73
2023/07/28 05:20:39;;;;;;;;;0.00;0.00;;;;;27.61;44.04;100646.69;5097328;27;46100;-72
2023/07/28 05:23:04;;;;;;;;;1.00;1.00;;;;;27.62;43.53;100652.84;5096701;27;45223;-73
2023/07/28 05:25:30;;;;;;;;;0.00;0.00;;;;;27.59;43.52;100643.44;5097463;27;45292;-73
2023/07/28 05:27:55;;;;;;;;;0.00;0.00;;;;;27.66;44.08;100653.22;5097455;27;45331;-73
2023/07/28 05:30:20;;;;;;;;;0.33;0.33;;;;;27.63;44.09;100655.31;5097056;27;45357;-73
2023/07/28 05:32:47;;;;;;;;;0.33;0.33;;;;;27.64;44.27;100656.13;5097201;27;45340;-73
2023/07/28 05:35:14;;;;;;;;;0.00;0.00;;;;;27.66;43.88;100655.91;5097400;27;45288;-73
2023/07/28 05:37:39;;;;;;;;;0.00;0.00;;;;;27.65;44.01;100656.94;5096618;27;45538;-73
2023/07/28 05:40:05;;;;;;;;;0.00;0.00;;;;;27.66;43.65;100656.72;5096947;27;45374;-73
2023/07/28 05:42:31;;;;;;;;;0.00;0.00;;;;;27.66;44.15;100662.06;5096878;27;45333;-73
2023/07/28 05:44:56;;;;;;;;;0.67;0.67;;;;;27.65;44.03;100660.44;5097143;27;45295;-73
2023/07/28 05:47:21;;;;;;;;;0.00;0.00;;;;;27.66;44.21;100664.75;5096777;27;47926;-73
2023/07/28 05:49:47;;;;;;;;;1.00;1.00;;;;;27.64;44.02;100664.13;5096875;27;46175;-73
2023/07/28 05:52:12;;;;;;;;;1.00;1.00;;;;;27.67;44.30;100668.22;5096088;27;45498;-73
2023/07/28 05:54:38;;;;;;;;;0.33;0.33;;;;;27.67;44.10;100666.34;5096608;27;45453;-73
2023/07/28 05:57:03;;;;;;;;;0.00;0.00;;;;;27.63;43.98;100666.00;5097106;27;45429;-73
2023/07/28 05:59:29;;;;;;;;;1.00;1.00;;;;;27.66;43.90;100679.97;5096672;27;45411;-73
2023/07/28 06:01:55;;;;;;;;;1.00;1.00;;;;;27.65;44.15;100676.47;5096622;27;45463;-72
2023/07/28 06:04:20;;;;;;;;;0.00;0.00;;;;;27.65;43.60;100668.44;5097170;27;45407;-73
2023/07/28 06:06:45;;;;;;;;;1.33;1.00;;;;;27.66;44.20;100674.63;5096414;27;45312;-73
2023/07/28 06:09:10;;;;;;;;;0.00;0.00;;;;;27.66;44.11;100674.63;5096671;27;46020;-74
2023/07/28 06:11:36;;;;;;;;;3.00;0.00;;;;;27.65;43.94;100672.97;5092245;27;45306;-73
2023/07/28 06:14:01;;;;;;;;;0.00;0.00;;;;;27.66;43.95;100664.75;5096397;27;45483;-72
2023/07/28 06:16:26;;;;;;;;;1.00;0.00;;;;;27.68;43.79;100676.03;5096346;27;45564;-73
2023/07/28 06:18:52;;;;;;;;;0.00;0.00;;;;;27.67;43.52;100674.38;5095560;27;52728;-74
2023/07/28 06:21:17;;;;;;;;;1.00;1.00;;;;;27.67;43.45;100677.06;5096033;27;45197;-73
2023/07/28 06:23:42;;;;;;;;;0.00;0.00;;;;;27.64;43.85;100674.81;5091532;27;45441;-73
2023/07/28 06:26:08;;;;;;;;;1.00;1.00;;;;;27.66;44.33;100680.78;5084745;27;45337;-73
2023/07/28 06:28:33;;;;;;;;;0.67;0.67;;;;;27.65;44.46;100681.81;5075281;27;46780;-73
2023/07/28 06:30:58;;;;;;;;;0.00;0.00;;;;;27.49;44.84;100685.88;5075848;28;45355;-75
2023/07/28 06:33:25;;;;;;;;;0.00;0.00;;;;;27.30;45.30;100677.84;5087726;27;45228;-72
2023/07/28 06:35:51;;;;;;;;;1.00;0.00;;;;;27.18;45.24;100673.22;5095823;27;45278;-72
2023/07/28 06:38:17;;;;;;;;;0.00;0.00;;;;;27.10;45.42;100672.66;5095976;27;46142;-72
2023/07/28 06:40:42;;;;;;;;;0.67;0.67;;;;;27.00;45.68;100679.31;5096165;27;45392;-72
2023/07/28 06:43:08;;;;;;;;;0.00;0.00;;;;;26.92;46.43;100674.25;5096138;27;45323;-71
2023/07/28 06:45:33;;;;;;;;;1.00;1.00;;;;;26.81;46.13;100675.75;5096157;27;45247;-71
2023/07/28 06:47:59;;;;;;;;;0.00;0.00;;;;;26.75;46.26;100682.81;5092924;27;45292;-72
2023/07/28 06:50:24;;;;;;;;;0.00;0.00;;;;;26.68;47.08;100679.34;5089583;27;45524;-72
2023/07/28 06:52:50;;;;;;;;;0.00;0.00;;;;;26.65;47.20;100679.81;5091674;27;45437;-71
2023/07/28 06:55:16;;;;;;;;;0.00;0.00;;;;;26.60;47.14;100678.56;5080061;27;45339;-78
2023/07/28 06:57:42;;;;;;;;;0.00;0.00;;;;;26.52;47.13;100679.66;5091018;27;46419;-72
2023/07/28 07:00:11;;;;;;;;;0.33;0.33;;;;;26.49;47.63;100679.28;5079600;27;45263;-73
2023/07/28 07:02:36;;;;;;;;;0.00;0.00;;;;;26.42;47.29;100681.94;5092467;27;45354;-73
2023/07/28 07:05:02;;;;;;;;;1.67;0.00;;;;;26.35;47.21;100676.66;5087991;27;45284;-72
2023/07/28 07:07:27;;;;;;;;;0.00;0.00;;;;;26.29;47.80;100683.66;5098119;27;46387;-73
2023/07/28 07:09:53;;;;;;;;;0.00;0.00;;;;;26.25;47.87;100685.13;5109467;27;49527;-73
2023/07/28 07:12:20;;;;;;;;;0.00;0.00;;;;;26.19;48.17;100691.31;5117936;27;45356;-73
2023/07/28 07:14:45;;;;;;;;;0.00;0.00;;;;;26.12;47.89;100686.00;5098919;27;45369;-74
2023/07/28 07:17:11;;;;;;;;;0.00;0.00;;;;;26.10;48.54;100688.03;5098692;27;45326;-73
2023/07/28 07:19:36;;;;;;;;;0.00;0.00;;;;;26.08;48.43;100690.09;5105831;27;45467;-72
2023/07/28 07:22:01;;;;;;;;;1.00;1.00;;;;;26.05;48.34;100688.69;5108710;27;45410;-71
2023/07/28 07:24:27;;;;;;;;;0.33;0.33;;;;;26.04;48.70;100686.25;5098672;27;45403;-73
2023/07/28 07:26:52;;;;;;;;;0.67;0.67;;;;;26.13;48.83;100692.13;5107267;27;45298;-70
2023/07/28 07:29:17;;;;;;;;;0.33;0.33;;;;;26.20;48.47;100690.28;5118107;27;45574;-71
2023/07/28 07:31:43;;;;;;;;;0.00;0.00;;;;;26.29;48.62;100691.66;5118873;27;45528;-71
2023/07/28 07:34:09;;;;;;;;;0.00;0.00;;;;;26.37;48.60;100701.25;5118611;27;45436;-72
2023/07/28 07:36:34;;;;;;;;;0.00;0.00;;;;;26.47;48.74;100708.00;5118721;27;45911;-70
2023/07/28 07:38:59;;;;;;;;;0.67;0.00;;;;;26.55;49.16;100706.94;5118705;27;45759;-71
2023/07/28 07:41:25;;;;;;;;;0.00;0.00;;;;;26.63;48.72;100709.34;5118983;27;45217;-71
2023/07/28 07:43:53;;;;;;;;;2.00;0.00;;;;;26.69;48.80;100705.00;5117793;27;45643;-73
2023/07/28 07:46:19;;;;;;;;;2.00;1.00;;;;;26.72;48.59;100696.56;5118784;27;45369;-74
2023/07/28 07:48:45;;;;;;;;;2.00;1.33;;;;;26.77;48.56;100702.09;5118263;27;45441;-72
2023/07/28 07:51:11;;;;;;;;;1.00;1.00;;;;;26.72;48.31;100705.41;5117047;27;45376;-72
2023/07/28 07:53:36;;;;;;;;;0.67;0.67;;;;;26.68;47.60;100716.69;5097974;27;45575;-74
2023/07/28 07:56:03;;;;;;;;;1.33;0.33;;;;;26.61;48.35;100717.59;5101548;27;46256;-76
2023/07/28 07:58:28;;;;;;;;;1.00;1.00;;;;;26.54;48.04;100718.66;5098290;27;45316;-75
2023/07/28 08:00:54;;;;;;;;;2.00;2.00;;;;;26.46;48.85;100711.72;5117139;27;45414;-74
2023/07/28 08:03:20;;;;;;;;;1.00;1.00;;;;;26.41;48.24;100710.47;5109906;27;45703;-81
2023/07/28 08:05:45;;;;;;;;;1.00;1.00;;;;;26.34;48.96;100716.84;5102030;27;46195;-76
2023/07/28 08:08:10;;;;;;;;;2.33;1.67;;;;;26.25;48.26;100708.31;5097813;27;45330;-78
2023/07/28 08:10:36;;;;;;;;;4.00;1.00;;;;;26.23;48.94;100715.69;5096612;27;45331;-77
2023/07/28 08:13:04;;;;;;;;;1.33;1.00;;;;;26.17;48.31;100712.84;5097993;27;45380;-77
2023/07/28 08:15:30;;;;;;;;;1.00;0.33;;;;;26.18;48.72;100724.31;5097507;27;46217;-81
2023/07/28 08:17:55;;;;;;;;;1.00;1.00;;;;;26.16;49.07;100721.03;5097318;27;45417;-75
2023/07/28 08:20:20;;;;;;;;;1.00;1.00;;;;;26.13;49.17;100719.63;5097547;27;46169;-73
2023/07/28 08:22:46;;;;;;;;;1.00;0.00;;;;;26.13;48.84;100713.47;5098008;27;45350;-75
2023/07/28 08:25:11;;;;;;;;;0.00;0.00;;;;;26.14;48.94;100721.28;5097777;27;46410;-76
2023/07/28 08:27:36;;;;;;;;;0.00;0.00;;;;;26.15;48.91;100719.44;5097693;27;45355;-77
2023/07/28 08:30:03;;;;;;;;;1.00;1.00;;;;;26.17;49.13;100720.03;5097355;27;49224;-77
2023/07/28 08:32:28;;;;;;;;;0.00;0.00;;;;;26.19;48.94;100715.28;5097564;27;45350;-76
2023/07/28 08:34:54;;;;;;;;;2.00;0.33;;;;;26.22;49.24;100714.06;5097631;27;45299;-76
2023/07/28 08:37:19;;;;;;;;;0.67;0.67;;;;;26.29;48.99;100717.50;5097763;27;45477;-76
2023/07/28 08:39:45;;;;;;;;;1.00;1.00;;;;;26.38;49.01;100728.75;5096338;27;45386;-77
2023/07/28 08:42:10;;;;;;;;;0.00;0.00;;;;;26.42;49.02;100724.63;5097564;27;45169;-77
2023/07/28 08:44:36;;;;;;;;;0.00;0.00;;;;;26.50;49.11;100735.06;5097491;27;46303;-76
2023/07/28 08:47:04;;;;;;;;;0.33;0.33;;;;;26.52;48.80;100734.84;5097109;27;45398;-74
2023/07/28 08:49:32;;;;;;;;;0.00;0.00;;;;;26.54;48.70;100735.47;5096380;27;45671;-75
2023/07/28 08:51:59;;;;;;;;;0.00;0.00;;;;;26.58;48.60;100731.34;5097536;27;45528;-76
2023/07/28 08:54:24;;;;;;;;;0.00;0.00;;;;;26.61;49.04;100730.09;5097344;27;46307;-75
2023/07/28 08:56:50;;;;;;;;;0.00;0.00;;;;;26.65;49.36;100728.63;5097588;27;45237;-75
2023/07/28 08:59:25;;;;;;;;;1.33;0.00;;;;;26.71;48.76;100730.44;5097786;27;45370;-75
2023/07/28 09:01:50;;;;;;;;;0.00;0.00;;;;;26.75;48.65;100725.50;5117536;27;45239;-75
2023/07/28 09:04:16;;;;;;;;;0.00;0.00;;;;;26.79;48.39;100726.69;5116633;27;46114;-75
2023/07/28 09:06:45;;;;;;;;;0.33;0.00;;;;;26.83;48.88;100735.06;5117921;27;45305;-75
2023/07/28 09:09:10;;;;;;;;;1.67;0.33;;;;;26.83;48.28;100727.88;5118191;27;45398;-76
2023/07/28 09:11:44;;;;;;;;;0.33;0.00;;;;;26.86;48.89;100729.31;5117556;27;45321;-75
2023/07/28 09:14:16;;;;;;;;;1.33;1.00;;;;;26.87;48.11;100736.28;5117740;27;45502;-76
2023/07/28 09:16:41;;;;;;;;;0.00;0.00;;;;;26.87;47.92;100736.28;5117539;27;45419;-76
2023/07/28 09:19:08;;;;;;;;;0.00;0.00;;;;;26.79;48.47;100726.69;5117619;27;45524;-76
2023/07/28 09:21:34;;;;;;;;;0.00;0.00;;;;;26.85;48.17;100743.72;5111410;27;45460;-76
2023/07/28 09:24:01;;;;;;;;;1.00;1.00;;;;;26.81;47.67;100740.63;5097050;27;46110;-75
2023/07/28 09:26:47;;;;;;;;;0.00;0.00;;;;;26.78;47.43;100734.94;5097627;27;45268;-74
2023/07/28 09:29:20;;;;;;;;;1.00;1.00;;;;;26.72;48.26;100736.59;5095956;27;45307;-75
2023/07/28 09:31:46;;;;;;;;;0.00;0.00;;;;;26.67;48.18;100725.75;5097042;27;45315;-76
2023/07/28 09:34:13;;;;;;;;;1.67;0.00;;;;;26.74;49.03;100731.88;5096650;27;45370;-74
2023/07/28 09:36:40;;;;;;;;;1.33;0.33;;;;;26.74;48.20;100723.84;5096889;27;45344;-76
2023/07/28 09:39:09;;;;;;;;;1.67;1.00;;;;;26.84;48.45;100729.53;5096937;27;45314;-76
2023/07/28 09:41:37;;;;;;;;;1.00;1.00;;;;;26.90;48.48;100729.72;5096846;27;45291;-76
2023/07/28 09:44:02;;;;;;;;;2.67;1.67;;;;;26.93;48.13;100722.06;5095104;27;47403;-75
2023/07/28 09:46:30;;;;;;;;;1.00;1.00;;;;;27.05;47.39;100716.84;5095121;27;45315;-74
2023/07/28 09:48:58;;;;;;;;;1.00;1.00;;;;;27.05;47.33;100708.84;5096737;27;45474;-75
2023/07/28 09:51:30;;;;;;;;;1.00;1.00;;;;;27.11;46.95;100720.53;5091837;27;45473;-76
2023/07/28 09:54:03;;;;;;;;;1.00;1.00;;;;;27.15;46.81;100712.91;5076136;27;45240;-76
2023/07/28 09:56:32;;;;;;;;;2.00;1.33;;;;;27.15;46.49;100715.56;5086467;27;45316;-75
2023/07/28 09:58:59;;;;;;;;;1.00;1.00;;;;;27.11;46.97;100715.19;5116890;27;45495;-76
2023/07/28 10:01:25;;;;;;;;;3.33;2.00;;;;;27.09;46.81;100711.88;5117009;27;45500;-73
2023/07/28 10:03:51;;;;;;;;;1.00;1.00;;;;;27.09;47.88;100713.75;5116896;27;46164;-74
2023/07/28 10:06:18;;;;;;;;;1.00;1.00;;;;;27.09;48.13;100717.22;5116701;27;45392;-74
2023/07/28 10:08:45;;;;;;;;;1.00;1.00;;;;;27.03;47.09;100713.59;5116988;27;45324;-74
2023/07/28 10:11:12;;;;;;;;;1.00;1.00;;;;;26.98;47.55;100707.28;5116970;27;45365;-75
2023/07/28 10:13:46;;;;;;;;;2.00;2.00;;;;;26.91;47.50;100716.13;5116643;27;45532;-75
2023/07/28 10:16:14;;;;;;;;;1.33;1.33;;;;;26.87;47.15;100719.47;5116671;27;45414;-75
2023/07/28 10:18:40;;;;;;;;;1.00;1.00;;;;;26.85;47.80;100714.34;5116640;27;45533;-75
2023/07/28 10:21:10;;;;;;;;;2.00;0.67;;;;;26.83;47.64;100709.22;5116535;27;45419;-75
2023/07/28 10:23:38;;;;;;;;;0.00;0.00;;;;;26.85;47.49;100709.81;5116187;27;48253;-75
2023/07/28 10:26:07;;;;;;;;;3.00;3.00;;;;;26.80;47.74;100706.16;5116474;27;45404;-74
2023/07/28 10:28:43;;;;;;;;;1.33;1.33;;;;;26.79;47.61;100716.03;5116404;27;45359;-74
2023/07/28 10:31:10;;;;;;;;;1.67;1.00;;;;;26.79;48.40;100713.34;5115626;27;45424;-76
2023/07/28 10:33:38;;;;;;;;;2.00;2.00;;;;;26.79;48.11;100713.34;5116536;27;45343;-76
2023/07/28 10:36:34;;;;;;;;;3.00;1.00;;;;;26.82;48.18;100706.78;5116528;27;45368;-78
2023/07/28 10:39:07;;;;;;;;;3.67;3.67;;;;;26.76;47.96;100697.75;5117454;27;45479;-79
2023/07/28 10:41:35;;;;;;;;;0.67;0.67;;;;;26.80;48.35;100698.16;5120359;27;45507;-78
2023/07/28 10:44:01;;;;;;;;;1.00;1.00;;;;;26.82;48.83;100704.09;5119474;27;45993;-77
2023/07/28 10:46:26;;;;;;;;;0.33;0.33;;;;;26.84;48.87;100704.69;5120190;27;45665;-78
2023/07/28 10:48:52;;;;;;;;;1.00;1.00;;;;;26.84;48.06;100704.69;5120325;27;45298;-75
2023/07/28 10:51:28;;;;;;;;;0.33;0.33;;;;;26.79;48.93;100692.00;5117164;27;45535;-75
2023/07/28 10:54:00;;;;;;;;;1.00;1.00;;;;;26.84;48.65;100702.03;5099352;27;46192;-74
2023/07/28 10:56:26;;;;;;;;;0.33;0.33;;;;;26.90;48.85;100711.03;5099115;27;45316;-74
2023/07/28 10:59:03;;;;;;;;;1.00;1.00;;;;;26.91;48.86;100704.63;5099564;27;45360;-75
2023/07/28 11:01:39;;;;;;;;;1.00;1.00;;;;;26.92;48.84;100696.44;5099493;27;45306;-75
2023/07/28 11:04:17;;;;;;;;;0.00;0.00;;;;;26.96;48.68;100702.94;5099335;27;46188;-74
2023/07/28 11:06:47;;;;;;;;;2.00;0.33;;;;;26.95;48.39;100700.50;5099215;27;45441;-74
2023/07/28 11:09:14;;;;;;;;;1.00;1.00;;;;;27.00;48.93;100699.84;5099492;27;45358;-74
2023/07/28 11:11:41;;;;;;;;;1.00;1.00;;;;;26.98;49.24;100693.91;5098900;27;45422;-76
2023/07/28 11:14:08;;;;;;;;;1.00;1.00;;;;;27.04;49.20;100703.72;5099119;27;45523;-74
2023/07/28 11:16:37;;;;;;;;;2.67;1.33;;;;;27.06;48.80;100701.66;5099246;27;45360;-74
2023/07/28 11:19:10;;;;;;;;;1.00;1.00;;;;;27.12;48.82;100708.78;5104690;27;45603;-73
2023/07/28 11:21:37;;;;;;;;;0.00;0.00;;;;;27.17;49.32;100700.97;5113355;27;45307;-75